sensor_id;sensor_type;location;lat;lon;timestamp;pressure;altitude;pressure_sealevel;temperature;humidity
35507;BME280;36461;52.018;21.036;2023-04-07T00:00:31;100183.55;;;4.34;100.00
35507;BME280;36461;52.018;21.036;2023-04-07T00:03:18;100180.44;;;4.37;100.00
35507;BME280;36461;52.018;21.036;2023-04-07T00:05:47;100174.43;;;4.38;100.00
35507;BME280;36461;52.018;21.036;2023-04-07T00:08:15;100175.55;;;4.45;100.00
35507;BME280;36461;52.018;21.036;2023-04-07T00:10:43;100175.00;;;4.49;100.00
35507;BME280;36461;52.018;21.036;2023-04-07T00:13:11;100174.14;;;4.49;100.00
35507;BME280;36461;52.018;21.036;2023-04-07T00:15:39;100170.52;;;4.51;100.00
35507;BME280;36461;52.018;21.036;2023-04-07T00:18:07;100166.75;;;4.51;100.00
35507;BME280;36461;52.018;21.036;2023-04-07T00:20:35;100163.20;;;4.47;100.00
35507;BME280;36461;52.018;21.036;2023-04-07T00:23:04;100161.29;;;4.49;100.00
35507;BME280;36461;52.018;21.036;2023-04-07T00:25:34;100159.52;;;4.55;100.00
35507;BME280;36461;52.018;21.036;2023-04-07T00:28:02;100157.11;;;4.57;100.00
35507;BME280;36461;52.018;21.036;2023-04-07T00:30:30;100160.02;;;4.57;100.00
35507;BME280;36461;52.018;21.036;2023-04-07T00:32:58;100156.77;;;4.58;100.00
35507;BME280;36461;52.018;21.036;2023-04-07T00:35:27;100154.30;;;4.61;100.00
35507;BME280;36461;52.018;21.036;2023-04-07T00:37:55;100155.13;;;4.64;100.00
35507;BME280;36461;52.018;21.036;2023-04-07T00:40:24;100150.00;;;4.63;100.00
35507;BME280;36461;52.018;21.036;2023-04-07T00:42:52;100149.00;;;4.61;100.00
35507;BME280;36461;52.018;21.036;2023-04-07T00:45:20;100148.36;;;4.56;100.00
35507;BME280;36461;52.018;21.036;2023-04-07T00:47:48;100151.09;;;4.58;100.00
35507;BME280;36461;52.018;21.036;2023-04-07T00:50:17;100146.44;;;4.61;100.00
35507;BME280;36461;52.018;21.036;2023-04-07T00:52:45;100145.70;;;4.65;100.00
35507;BME280;36461;52.018;21.036;2023-04-07T00:55:14;100141.54;;;4.68;100.00
35507;BME280;36461;52.018;21.036;2023-04-07T00:57:42;100139.08;;;4.74;100.00
35507;BME280;36461;52.018;21.036;2023-04-07T01:00:14;100142.65;;;4.77;100.00
35507;BME280;36461;52.018;21.036;2023-04-07T01:02:56;100140.80;;;4.73;100.00
35507;BME280;36461;52.018;21.036;2023-04-07T01:05:45;100138.92;;;4.72;100.00
35507;BME280;36461;52.018;21.036;2023-04-07T01:08:19;100140.13;;;4.72;100.00
35507;BME280;36461;52.018;21.036;2023-04-07T01:11:19;100139.06;;;4.75;100.00
35507;BME280;36461;52.018;21.036;2023-04-07T01:13:52;100139.73;;;4.77;100.00
35507;BME280;36461;52.018;21.036;2023-04-07T01:16:31;100141.26;;;4.78;100.00
35507;BME280;36461;52.018;21.036;2023-04-07T01:19:38;100140.67;;;4.83;100.00
35507;BME280;36461;52.018;21.036;2023-04-07T01:22:11;100137.08;;;4.83;100.00
35507;BME280;36461;52.018;21.036;2023-04-07T01:30:00;100134.27;;;4.87;100.00
35507;BME280;36461;52.018;21.036;2023-04-07T01:32:31;100133.96;;;4.85;100.00
35507;BME280;36461;52.018;21.036;2023-04-07T01:35:02;100131.88;;;4.87;100.00
35507;BME280;36461;52.018;21.036;2023-04-07T01:37:33;100132.75;;;4.86;100.00
35507;BME280;36461;52.018;21.036;2023-04-07T01:40:03;100131.84;;;4.90;100.00
35507;BME280;36461;52.018;21.036;2023-04-07T01:42:33;100134.38;;;4.92;100.00
35507;BME280;36461;52.018;21.036;2023-04-07T01:45:01;100133.45;;;4.98;100.00
35507;BME280;36461;52.018;21.036;2023-04-07T01:47:31;100126.56;;;5.01;100.00
35507;BME280;36461;52.018;21.036;2023-04-07T01:50:01;100121.92;;;5.01;100.00
35507;BME280;36461;52.018;21.036;2023-04-07T01:52:34;100121.40;;;5.01;100.00
35507;BME280;36461;52.018;21.036;2023-04-07T01:55:03;100119.38;;;5.00;100.00
35507;BME280;36461;52.018;21.036;2023-04-07T01:57:35;100124.32;;;5.01;100.00
35507;BME280;36461;52.018;21.036;2023-04-07T02:00:10;100124.31;;;5.02;100.00
35507;BME280;36461;52.018;21.036;2023-04-07T02:02:54;100126.81;;;5.07;100.00
35507;BME280;36461;52.018;21.036;2023-04-07T02:05:26;100123.55;;;5.08;100.00
35507;BME280;36461;52.018;21.036;2023-04-07T02:08:04;100121.46;;;5.10;100.00
35507;BME280;36461;52.018;21.036;2023-04-07T02:10:36;100124.67;;;5.13;100.00
35507;BME280;36461;52.018;21.036;2023-04-07T02:13:07;100122.75;;;5.15;100.00
35507;BME280;36461;52.018;21.036;2023-04-07T02:15:38;100126.86;;;5.17;100.00
35507;BME280;36461;52.018;21.036;2023-04-07T02:18:07;100124.96;;;5.16;100.00
35507;BME280;36461;52.018;21.036;2023-04-07T02:20:38;100125.61;;;5.20;100.00
35507;BME280;36461;52.018;21.036;2023-04-07T02:23:11;100128.39;;;5.30;100.00
35507;BME280;36461;52.018;21.036;2023-04-07T02:25:40;100129.63;;;5.38;100.00
35507;BME280;36461;52.018;21.036;2023-04-07T02:28:08;100128.26;;;5.39;100.00
35507;BME280;36461;52.018;21.036;2023-04-07T02:30:36;100127.30;;;5.33;100.00
35507;BME280;36461;52.018;21.036;2023-04-07T02:33:04;100127.69;;;5.30;100.00
35507;BME280;36461;52.018;21.036;2023-04-07T02:35:32;100123.69;;;5.34;100.00
35507;BME280;36461;52.018;21.036;2023-04-07T02:38:02;100122.81;;;5.34;100.00
35507;BME280;36461;52.018;21.036;2023-04-07T02:40:30;100120.10;;;5.33;100.00
35507;BME280;36461;52.018;21.036;2023-04-07T02:42:58;100118.75;;;5.31;100.00
35507;BME280;36461;52.018;21.036;2023-04-07T02:45:26;100119.48;;;5.40;100.00
35507;BME280;36461;52.018;21.036;2023-04-07T02:47:54;100118.73;;;5.44;100.00
35507;BME280;36461;52.018;21.036;2023-04-07T02:50:22;100119.15;;;5.40;100.00
35507;BME280;36461;52.018;21.036;2023-04-07T02:52:52;100116.86;;;5.43;100.00
35507;BME280;36461;52.018;21.036;2023-04-07T02:55:21;100117.02;;;5.44;100.00
35507;BME280;36461;52.018;21.036;2023-04-07T02:57:49;100113.95;;;5.42;100.00
35507;BME280;36461;52.018;21.036;2023-04-07T03:00:25;100118.23;;;5.42;100.00
35507;BME280;36461;52.018;21.036;2023-04-07T03:03:14;100119.74;;;5.45;100.00
35507;BME280;36461;52.018;21.036;2023-04-07T03:05:55;100123.09;;;5.51;100.00
35507;BME280;36461;52.018;21.036;2023-04-07T03:08:23;100118.84;;;5.59;100.00
35507;BME280;36461;52.018;21.036;2023-04-07T03:10:52;100119.61;;;5.65;100.00
35507;BME280;36461;52.018;21.036;2023-04-07T03:13:24;100121.98;;;5.67;100.00
35507;BME280;36461;52.018;21.036;2023-04-07T03:15:52;100120.08;;;5.67;100.00
35507;BME280;36461;52.018;21.036;2023-04-07T03:18:21;100121.67;;;5.65;100.00
35507;BME280;36461;52.018;21.036;2023-04-07T03:20:50;100119.15;;;5.62;100.00
35507;BME280;36461;52.018;21.036;2023-04-07T03:23:19;100118.16;;;5.59;100.00
35507;BME280;36461;52.018;21.036;2023-04-07T03:25:47;100120.52;;;5.61;100.00
35507;BME280;36461;52.018;21.036;2023-04-07T03:28:16;100122.16;;;5.66;100.00
35507;BME280;36461;52.018;21.036;2023-04-07T03:30:44;100121.44;;;5.69;100.00
35507;BME280;36461;52.018;21.036;2023-04-07T03:33:12;100120.76;;;5.68;100.00
35507;BME280;36461;52.018;21.036;2023-04-07T03:35:41;100119.81;;;5.63;100.00
35507;BME280;36461;52.018;21.036;2023-04-07T03:38:11;100120.64;;;5.64;100.00
35507;BME280;36461;52.018;21.036;2023-04-07T03:40:39;100119.27;;;5.65;100.00
35507;BME280;36461;52.018;21.036;2023-04-07T03:43:07;100120.56;;;5.70;100.00
35507;BME280;36461;52.018;21.036;2023-04-07T03:45:39;100115.01;;;5.74;100.00
35507;BME280;36461;52.018;21.036;2023-04-07T03:48:08;100114.23;;;5.79;100.00
35507;BME280;36461;52.018;21.036;2023-04-07T03:50:47;100113.13;;;5.83;100.00
35507;BME280;36461;52.018;21.036;2023-04-07T03:53:17;100115.13;;;5.85;100.00
35507;BME280;36461;52.018;21.036;2023-04-07T03:55:47;100114.23;;;5.89;100.00
35507;BME280;36461;52.018;21.036;2023-04-07T03:58:24;100114.55;;;5.89;100.00
35507;BME280;36461;52.018;21.036;2023-04-07T04:00:52;100115.42;;;5.89;100.00
35507;BME280;36461;52.018;21.036;2023-04-07T04:03:20;100113.86;;;5.91;100.00
35507;BME280;36461;52.018;21.036;2023-04-07T04:05:57;100114.82;;;5.95;100.00
35507;BME280;36461;52.018;21.036;2023-04-07T04:08:28;100116.85;;;5.98;100.00
35507;BME280;36461;52.018;21.036;2023-04-07T04:10:56;100118.69;;;6.00;100.00
35507;BME280;36461;52.018;21.036;2023-04-07T04:13:27;100118.08;;;6.06;100.00
35507;BME280;36461;52.018;21.036;2023-04-07T04:15:56;100117.22;;;6.07;100.00
35507;BME280;36461;52.018;21.036;2023-04-07T04:18:24;100114.98;;;6.07;100.00
35507;BME280;36461;52.018;21.036;2023-04-07T04:20:53;100115.65;;;6.08;100.00
35507;BME280;36461;52.018;21.036;2023-04-07T04:23:22;100123.03;;;6.08;100.00
35507;BME280;36461;52.018;21.036;2023-04-07T04:25:52;100121.29;;;6.10;100.00
35507;BME280;36461;52.018;21.036;2023-04-07T04:28:20;100121.59;;;6.12;100.00
35507;BME280;36461;52.018;21.036;2023-04-07T04:30:49;100126.36;;;6.14;100.00
35507;BME280;36461;52.018;21.036;2023-04-07T04:33:18;100124.92;;;6.17;100.00
35507;BME280;36461;52.018;21.036;2023-04-07T04:35:54;100126.74;;;6.21;100.00
35507;BME280;36461;52.018;21.036;2023-04-07T04:38:24;100129.27;;;6.24;100.00
35507;BME280;36461;52.018;21.036;2023-04-07T04:41:04;100128.43;;;6.23;100.00
35507;BME280;36461;52.018;21.036;2023-04-07T04:43:33;100131.91;;;6.21;100.00
35507;BME280;36461;52.018;21.036;2023-04-07T04:46:02;100125.94;;;6.18;100.00
35507;BME280;36461;52.018;21.036;2023-04-07T04:48:33;100132.95;;;6.20;100.00
35507;BME280;36461;52.018;21.036;2023-04-07T04:51:04;100132.02;;;6.24;100.00
35507;BME280;36461;52.018;21.036;2023-04-07T04:53:32;100131.48;;;6.26;100.00
35507;BME280;36461;52.018;21.036;2023-04-07T04:56:01;100133.14;;;6.29;100.00
35507;BME280;36461;52.018;21.036;2023-04-07T04:58:41;100129.60;;;6.34;100.00
35507;BME280;36461;52.018;21.036;2023-04-07T05:01:18;100130.88;;;6.40;100.00
35507;BME280;36461;52.018;21.036;2023-04-07T05:03:52;100134.83;;;6.40;100.00
35507;BME280;36461;52.018;21.036;2023-04-07T05:06:23;100132.08;;;6.40;100.00
35507;BME280;36461;52.018;21.036;2023-04-07T05:08:52;100135.88;;;6.38;100.00
35507;BME280;36461;52.018;21.036;2023-04-07T05:11:23;100132.98;;;6.38;100.00
35507;BME280;36461;52.018;21.036;2023-04-07T05:13:53;100131.54;;;6.41;100.00
35507;BME280;36461;52.018;21.036;2023-04-07T05:16:21;100131.94;;;6.47;100.00
35507;BME280;36461;52.018;21.036;2023-04-07T05:18:49;100132.35;;;6.52;100.00
35507;BME280;36461;52.018;21.036;2023-04-07T05:21:18;100129.39;;;6.54;100.00
35507;BME280;36461;52.018;21.036;2023-04-07T05:23:50;100131.25;;;6.55;100.00
35507;BME280;36461;52.018;21.036;2023-04-07T05:26:20;100135.69;;;6.48;100.00
35507;BME280;36461;52.018;21.036;2023-04-07T05:28:49;100132.32;;;6.45;100.00
35507;BME280;36461;52.018;21.036;2023-04-07T05:31:19;100135.05;;;6.46;100.00
35507;BME280;36461;52.018;21.036;2023-04-07T05:33:49;100135.33;;;6.49;100.00
35507;BME280;36461;52.018;21.036;2023-04-07T05:36:18;100136.21;;;6.57;100.00
35507;BME280;36461;52.018;21.036;2023-04-07T05:38:46;100136.66;;;6.61;100.00
35507;BME280;36461;52.018;21.036;2023-04-07T05:41:17;100139.41;;;6.60;100.00
35507;BME280;36461;52.018;21.036;2023-04-07T05:43:45;100134.63;;;6.59;100.00
35507;BME280;36461;52.018;21.036;2023-04-07T05:46:14;100132.70;;;6.61;100.00
35507;BME280;36461;52.018;21.036;2023-04-07T05:48:52;100134.20;;;6.63;100.00
35507;BME280;36461;52.018;21.036;2023-04-07T05:51:20;100136.64;;;6.70;100.00
35507;BME280;36461;52.018;21.036;2023-04-07T05:53:49;100137.81;;;6.71;100.00
35507;BME280;36461;52.018;21.036;2023-04-07T05:56:20;100138.48;;;6.81;100.00
35507;BME280;36461;52.018;21.036;2023-04-07T05:58:49;100139.16;;;6.82;100.00
35507;BME280;36461;52.018;21.036;2023-04-07T06:01:18;100135.47;;;6.85;100.00
35507;BME280;36461;52.018;21.036;2023-04-07T06:03:47;100133.29;;;6.91;100.00
35507;BME280;36461;52.018;21.036;2023-04-07T06:06:19;100128.48;;;6.90;100.00
35507;BME280;36461;52.018;21.036;2023-04-07T06:08:48;100129.93;;;6.95;100.00
35507;BME280;36461;52.018;21.036;2023-04-07T06:11:16;100129.46;;;7.00;100.00
35507;BME280;36461;52.018;21.036;2023-04-07T06:13:44;100127.52;;;7.03;100.00
35507;BME280;36461;52.018;21.036;2023-04-07T06:16:13;100130.09;;;7.04;100.00
35507;BME280;36461;52.018;21.036;2023-04-07T06:18:42;100131.35;;;7.09;100.00
35507;BME280;36461;52.018;21.036;2023-04-07T06:21:10;100133.58;;;7.10;100.00
35507;BME280;36461;52.018;21.036;2023-04-07T06:23:38;100135.27;;;7.04;100.00
35507;BME280;36461;52.018;21.036;2023-04-07T06:26:09;100134.17;;;7.06;100.00
35507;BME280;36461;52.018;21.036;2023-04-07T06:28:39;100135.36;;;7.14;100.00
35507;BME280;36461;52.018;21.036;2023-04-07T06:31:07;100135.79;;;7.18;100.00
35507;BME280;36461;52.018;21.036;2023-04-07T06:33:36;100136.95;;;7.28;100.00
35507;BME280;36461;52.018;21.036;2023-04-07T06:36:05;100134.17;;;7.37;100.00
35507;BME280;36461;52.018;21.036;2023-04-07T06:38:35;100131.89;;;7.46;100.00
35507;BME280;36461;52.018;21.036;2023-04-07T06:41:03;100127.75;;;7.54;100.00
35507;BME280;36461;52.018;21.036;2023-04-07T06:43:31;100126.35;;;7.62;100.00
35507;BME280;36461;52.018;21.036;2023-04-07T06:46:04;100128.06;;;7.69;100.00
35507;BME280;36461;52.018;21.036;2023-04-07T06:48:33;100129.46;;;7.76;100.00
35507;BME280;36461;52.018;21.036;2023-04-07T06:51:01;100133.33;;;7.73;100.00
35507;BME280;36461;52.018;21.036;2023-04-07T06:53:29;100132.64;;;7.80;100.00
35507;BME280;36461;52.018;21.036;2023-04-07T06:56:05;100134.17;;;7.87;100.00
35507;BME280;36461;52.018;21.036;2023-04-07T06:58:34;100133.45;;;7.95;100.00
35507;BME280;36461;52.018;21.036;2023-04-07T07:01:03;100134.45;;;8.04;100.00
35507;BME280;36461;52.018;21.036;2023-04-07T07:03:32;100134.27;;;8.11;100.00
35507;BME280;36461;52.018;21.036;2023-04-07T07:06:01;100130.38;;;8.15;100.00
35507;BME280;36461;52.018;21.036;2023-04-07T07:08:29;100130.89;;;8.14;100.00
35507;BME280;36461;52.018;21.036;2023-04-07T07:10:57;100130.98;;;8.17;100.00
35507;BME280;36461;52.018;21.036;2023-04-07T07:13:27;100126.77;;;8.21;100.00
35507;BME280;36461;52.018;21.036;2023-04-07T07:15:55;100131.08;;;8.21;100.00
35507;BME280;36461;52.018;21.036;2023-04-07T07:18:24;100128.13;;;8.28;100.00
35507;BME280;36461;52.018;21.036;2023-04-07T07:20:52;100129.46;;;8.35;100.00
35507;BME280;36461;52.018;21.036;2023-04-07T07:23:20;100127.90;;;8.43;100.00
35507;BME280;36461;52.018;21.036;2023-04-07T07:25:48;100128.70;;;8.46;100.00
35507;BME280;36461;52.018;21.036;2023-04-07T07:28:16;100130.16;;;8.49;100.00
35507;BME280;36461;52.018;21.036;2023-04-07T07:30:45;100132.62;;;8.54;100.00
35507;BME280;36461;52.018;21.036;2023-04-07T07:33:15;100134.41;;;8.58;100.00
35507;BME280;36461;52.018;21.036;2023-04-07T07:35:43;100134.83;;;8.62;100.00
35507;BME280;36461;52.018;21.036;2023-04-07T07:38:11;100135.52;;;8.62;100.00
35507;BME280;36461;52.018;21.036;2023-04-07T07:40:39;100138.38;;;8.64;100.00
35507;BME280;36461;52.018;21.036;2023-04-07T07:43:08;100137.70;;;8.69;100.00
35507;BME280;36461;52.018;21.036;2023-04-07T07:45:36;100141.29;;;8.78;100.00
35507;BME280;36461;52.018;21.036;2023-04-07T07:48:04;100143.50;;;8.78;100.00
35507;BME280;36461;52.018;21.036;2023-04-07T07:50:32;100140.78;;;8.77;100.00
35507;BME280;36461;52.018;21.036;2023-04-07T07:53:00;100138.30;;;8.79;100.00
35507;BME280;36461;52.018;21.036;2023-04-07T07:55:28;100138.65;;;8.85;100.00
35507;BME280;36461;52.018;21.036;2023-04-07T07:57:56;100141.06;;;8.97;100.00
35507;BME280;36461;52.018;21.036;2023-04-07T08:00:25;100144.27;;;9.05;100.00
35507;BME280;36461;52.018;21.036;2023-04-07T08:02:53;100145.96;;;9.06;100.00
35507;BME280;36461;52.018;21.036;2023-04-07T08:05:22;100148.78;;;9.11;100.00
35507;BME280;36461;52.018;21.036;2023-04-07T08:07:51;100150.55;;;9.15;100.00
35507;BME280;36461;52.018;21.036;2023-04-07T08:10:21;100149.21;;;9.14;100.00
35507;BME280;36461;52.018;21.036;2023-04-07T08:12:51;100150.70;;;9.15;100.00
35507;BME280;36461;52.018;21.036;2023-04-07T08:15:19;100153.16;;;9.20;100.00
35507;BME280;36461;52.018;21.036;2023-04-07T08:17:48;100151.41;;;9.26;100.00
35507;BME280;36461;52.018;21.036;2023-04-07T08:20:16;100148.86;;;9.36;100.00
35507;BME280;36461;52.018;21.036;2023-04-07T08:22:44;100145.83;;;9.45;100.00
35507;BME280;36461;52.018;21.036;2023-04-07T08:25:12;100149.84;;;9.49;100.00
35507;BME280;36461;52.018;21.036;2023-04-07T08:27:40;100150.52;;;9.50;100.00
35507;BME280;36461;52.018;21.036;2023-04-07T08:30:08;100148.09;;;9.61;100.00
35507;BME280;36461;52.018;21.036;2023-04-07T08:32:39;100144.18;;;9.80;100.00
35507;BME280;36461;52.018;21.036;2023-04-07T08:35:07;100141.64;;;10.05;100.00
35507;BME280;36461;52.018;21.036;2023-04-07T08:37:36;100142.33;;;10.20;100.00
35507;BME280;36461;52.018;21.036;2023-04-07T08:40:06;100136.32;;;10.34;100.00
35507;BME280;36461;52.018;21.036;2023-04-07T08:42:38;100138.46;;;10.53;100.00
35507;BME280;36461;52.018;21.036;2023-04-07T08:45:08;100136.85;;;10.82;100.00
35507;BME280;36461;52.018;21.036;2023-04-07T08:47:39;100140.59;;;11.12;100.00
35507;BME280;36461;52.018;21.036;2023-04-07T08:50:10;100141.57;;;11.41;100.00
35507;BME280;36461;52.018;21.036;2023-04-07T08:52:44;100135.20;;;11.65;100.00
35507;BME280;36461;52.018;21.036;2023-04-07T08:55:13;100140.26;;;11.86;100.00
35507;BME280;36461;52.018;21.036;2023-04-07T08:57:42;100140.65;;;12.11;100.00
35507;BME280;36461;52.018;21.036;2023-04-07T09:00:10;100140.40;;;12.29;99.99
35507;BME280;36461;52.018;21.036;2023-04-07T09:02:41;100140.55;;;12.50;99.63
35507;BME280;36461;52.018;21.036;2023-04-07T09:05:13;100142.55;;;12.64;98.55
35507;BME280;36461;52.018;21.036;2023-04-07T09:07:42;100139.52;;;12.65;97.87
35507;BME280;36461;52.018;21.036;2023-04-07T09:10:10;100145.52;;;12.55;96.49
35507;BME280;36461;52.018;21.036;2023-04-07T09:12:38;100142.88;;;12.40;96.29
35507;BME280;36461;52.018;21.036;2023-04-07T09:15:07;100139.60;;;12.39;96.18
35507;BME280;36461;52.018;21.036;2023-04-07T09:17:36;100138.36;;;12.36;96.28
35507;BME280;36461;52.018;21.036;2023-04-07T09:20:04;100142.13;;;12.33;96.17
35507;BME280;36461;52.018;21.036;2023-04-07T09:22:34;100139.61;;;12.27;96.09
35507;BME280;36461;52.018;21.036;2023-04-07T09:25:14;100135.10;;;12.27;96.27
35507;BME280;36461;52.018;21.036;2023-04-07T09:30:25;100133.05;;;12.14;96.04
35507;BME280;36461;52.018;21.036;2023-04-07T09:32:54;100129.75;;;12.06;95.59
35507;BME280;36461;52.018;21.036;2023-04-07T09:35:23;100131.20;;;12.08;96.26
35507;BME280;36461;52.018;21.036;2023-04-07T09:38:02;100130.65;;;12.05;95.88
35507;BME280;36461;52.018;21.036;2023-04-07T09:40:32;100133.77;;;12.01;96.20
35507;BME280;36461;52.018;21.036;2023-04-07T09:43:02;100135.91;;;11.86;95.57
35507;BME280;36461;52.018;21.036;2023-04-07T09:45:31;100137.87;;;11.73;95.70
35507;BME280;36461;52.018;21.036;2023-04-07T09:48:07;100137.50;;;11.65;95.96
35507;BME280;36461;52.018;21.036;2023-04-07T09:50:44;100136.60;;;11.61;96.00
35507;BME280;36461;52.018;21.036;2023-04-07T09:53:16;100136.34;;;11.63;96.46
35507;BME280;36461;52.018;21.036;2023-04-07T09:55:46;100137.48;;;11.65;96.34
35507;BME280;36461;52.018;21.036;2023-04-07T09:58:14;100138.05;;;11.64;96.12
35507;BME280;36461;52.018;21.036;2023-04-07T10:00:44;100141.38;;;11.63;96.38
35507;BME280;36461;52.018;21.036;2023-04-07T10:03:13;100139.20;;;11.61;96.24
35507;BME280;36461;52.018;21.036;2023-04-07T10:05:43;100140.90;;;11.57;96.08
35507;BME280;36461;52.018;21.036;2023-04-07T10:08:12;100140.45;;;11.65;96.75
35507;BME280;36461;52.018;21.036;2023-04-07T10:10:42;100142.35;;;11.73;97.17
35507;BME280;36461;52.018;21.036;2023-04-07T10:13:11;100144.81;;;11.81;97.00
35507;BME280;36461;52.018;21.036;2023-04-07T10:15:39;100145.14;;;11.82;96.20
35507;BME280;36461;52.018;21.036;2023-04-07T10:18:08;100147.42;;;11.81;96.36
35507;BME280;36461;52.018;21.036;2023-04-07T10:20:39;100149.10;;;11.78;96.23
35507;BME280;36461;52.018;21.036;2023-04-07T10:23:16;100145.68;;;11.81;96.17
35507;BME280;36461;52.018;21.036;2023-04-07T10:25:46;100143.52;;;11.79;96.01
35507;BME280;36461;52.018;21.036;2023-04-07T10:28:17;100145.05;;;11.79;96.08
35507;BME280;36461;52.018;21.036;2023-04-07T10:30:50;100144.83;;;11.89;96.84
35507;BME280;36461;52.018;21.036;2023-04-07T10:33:44;100144.95;;;12.03;97.26
35507;BME280;36461;52.018;21.036;2023-04-07T10:36:16;100147.84;;;12.09;96.69
35507;BME280;36461;52.018;21.036;2023-04-07T10:41:42;100150.50;;;12.12;96.57
35507;BME280;36461;52.018;21.036;2023-04-07T10:47:10;100159.98;;;12.00;96.61
35507;BME280;36461;52.018;21.036;2023-04-07T10:52:39;100160.16;;;12.01;96.75
35507;BME280;36461;52.018;21.036;2023-04-07T10:55:27;100158.14;;;11.99;96.20
35507;BME280;36461;52.018;21.036;2023-04-07T10:58:27;100159.67;;;11.96;96.32
35507;BME280;36461;52.018;21.036;2023-04-07T11:03:28;100164.73;;;11.99;96.51
35507;BME280;36461;52.018;21.036;2023-04-07T11:08:46;100165.58;;;11.95;96.19
35507;BME280;36461;52.018;21.036;2023-04-07T11:11:33;100166.13;;;11.93;96.53
35507;BME280;36461;52.018;21.036;2023-04-07T11:14:02;100168.98;;;11.97;96.79
35507;BME280;36461;52.018;21.036;2023-04-07T11:16:39;100171.84;;;11.95;96.62
35507;BME280;36461;52.018;21.036;2023-04-07T11:19:08;100173.94;;;11.89;96.35
35507;BME280;36461;52.018;21.036;2023-04-07T11:21:36;100171.30;;;11.85;96.30
35507;BME280;36461;52.018;21.036;2023-04-07T11:24:05;100171.55;;;11.84;96.38
35507;BME280;36461;52.018;21.036;2023-04-07T11:26:38;100172.52;;;11.86;96.71
35507;BME280;36461;52.018;21.036;2023-04-07T11:29:06;100169.90;;;11.90;97.16
35507;BME280;36461;52.018;21.036;2023-04-07T11:31:35;100172.41;;;11.93;97.12
35507;BME280;36461;52.018;21.036;2023-04-07T11:34:04;100173.33;;;11.96;97.17
35507;BME280;36461;52.018;21.036;2023-04-07T11:36:36;100175.39;;;12.01;97.14
35507;BME280;36461;52.018;21.036;2023-04-07T11:39:17;100172.29;;;12.09;96.95
35507;BME280;36461;52.018;21.036;2023-04-07T11:41:47;100170.54;;;12.14;97.43
35507;BME280;36461;52.018;21.036;2023-04-07T11:44:16;100169.14;;;12.26;97.79
35507;BME280;36461;52.018;21.036;2023-04-07T11:46:59;100174.04;;;12.46;97.51
35507;BME280;36461;52.018;21.036;2023-04-07T11:49:29;100173.70;;;12.57;97.05
35507;BME280;36461;52.018;21.036;2023-04-07T11:52:03;100172.35;;;12.61;96.98
35507;BME280;36461;52.018;21.036;2023-04-07T11:54:45;100168.88;;;12.53;96.22
35507;BME280;36461;52.018;21.036;2023-04-07T11:57:23;100172.03;;;12.44;96.79
35507;BME280;36461;52.018;21.036;2023-04-07T12:00:09;100170.23;;;12.46;97.01
35507;BME280;36461;52.018;21.036;2023-04-07T12:02:38;100173.02;;;12.37;95.01
35507;BME280;36461;52.018;21.036;2023-04-07T12:05:08;100172.48;;;12.37;95.55
35507;BME280;36461;52.018;21.036;2023-04-07T12:07:38;100172.98;;;12.38;95.43
35507;BME280;36461;52.018;21.036;2023-04-07T12:10:21;100173.73;;;12.33;94.68
35507;BME280;36461;52.018;21.036;2023-04-07T12:12:50;100179.38;;;12.18;94.33
35507;BME280;36461;52.018;21.036;2023-04-07T12:15:19;100191.86;;;12.02;94.88
35507;BME280;36461;52.018;21.036;2023-04-07T12:17:48;100198.99;;;11.79;95.94
35507;BME280;36461;52.018;21.036;2023-04-07T12:20:16;100201.63;;;11.56;94.31
35507;BME280;36461;52.018;21.036;2023-04-07T12:22:44;100206.36;;;11.46;94.30
35507;BME280;36461;52.018;21.036;2023-04-07T12:25:12;100205.66;;;11.46;94.54
35507;BME280;36461;52.018;21.036;2023-04-07T12:27:40;100209.73;;;11.48;93.94
35507;BME280;36461;52.018;21.036;2023-04-07T12:30:11;100217.25;;;11.51;93.86
35507;BME280;36461;52.018;21.036;2023-04-07T12:32:40;100224.42;;;11.58;93.84
35507;BME280;36461;52.018;21.036;2023-04-07T12:35:10;100227.45;;;11.60;93.69
35507;BME280;36461;52.018;21.036;2023-04-07T12:37:38;100229.95;;;11.63;93.41
35507;BME280;36461;52.018;21.036;2023-04-07T12:40:06;100234.80;;;11.68;93.44
35507;BME280;36461;52.018;21.036;2023-04-07T12:42:34;100233.61;;;11.80;93.10
35507;BME280;36461;52.018;21.036;2023-04-07T12:45:03;100235.83;;;11.95;93.10
35507;BME280;36461;52.018;21.036;2023-04-07T12:47:31;100241.52;;;12.13;92.45
35507;BME280;36461;52.018;21.036;2023-04-07T12:50:01;100238.73;;;12.22;92.15
35507;BME280;36461;52.018;21.036;2023-04-07T12:52:29;100237.11;;;12.36;92.21
35507;BME280;36461;52.018;21.036;2023-04-07T12:54:57;100239.98;;;12.58;92.31
35507;BME280;36461;52.018;21.036;2023-04-07T12:57:26;100235.62;;;12.75;91.57
35507;BME280;36461;52.018;21.036;2023-04-07T12:59:54;100239.05;;;12.84;90.84
35507;BME280;36461;52.018;21.036;2023-04-07T13:02:22;100236.38;;;12.89;90.19
35507;BME280;36461;52.018;21.036;2023-04-07T13:04:52;100235.23;;;13.00;90.58
35507;BME280;36461;52.018;21.036;2023-04-07T13:07:20;100234.95;;;13.14;90.53
35507;BME280;36461;52.018;21.036;2023-04-07T13:09:48;100233.94;;;13.32;90.02
35507;BME280;36461;52.018;21.036;2023-04-07T13:12:17;100231.10;;;13.38;89.45
35507;BME280;36461;52.018;21.036;2023-04-07T13:14:45;100239.20;;;13.39;88.15
35507;BME280;36461;52.018;21.036;2023-04-07T13:17:27;100238.50;;;13.40;87.67
35507;BME280;36461;52.018;21.036;2023-04-07T13:19:56;100240.65;;;13.42;87.75